Belvidere, New Jersey
Current Conditions -  °F | °C
As of 4:51 PM on Thursday 23 Oct 2014 (Local Time) from KABE Reporting Station
Overcast Overcast  
Wind Chill: 53°   Ceiling: 6500
Heat Index: 53°   Visibility: 10mi
Dew Point: 43°   Wind: 24mph
Humidity: 69%   Direction: 340°NNW
Pressure: 29.8"   Gusts: 33mph
Location:  40.83°N, 75.08°W
Report Text: KABE 232051Z 34021G29KT 10SM OVC065 12/06 A2980 RMK AO2 PK WND 34029/2050 SLP092 T01170061 53001
Loading
Personal Weather Stations






























Interactive Weather Map New forecast layout! Learn more

10-Day Weather Forecast

Advertisements
Track Severe Weather on mobile